VLG3LU LFMN-LEBL
Flight info
| Callsign | VLG3LU |
|---|---|
| Flight time | 0h 55m |
| Altitude | 30000 |
| Route | EPOLO DCT SOFFY/N0431F290 DCT NILDU DCT BISBA |
| Aircraft | A21N/M-SDE2E3FGHIRWXY/LB1 |
Departure
| Time | 2026-05-04 19:02 |
|---|---|
| Airport | Nice-Côte d'Azur Airport (LFMN) |
Arrival
| Time | 2026-05-04 19:58 |
|---|---|
| Airport | Josep Tarradellas Barcelona-El Prat Airport (LEBL) |
| Time | Latitude | Longitude | Altitude | Speed | Heading |
|---|---|---|---|---|---|
| 2026-05-04 18:43 | 43.65811 | 7.20538 | 27 ft | 0 kts | 315° |
| 2026-05-04 18:53 | 43.65798 | 7.20556 | 27 ft | 3 kts | 308° |
| 2026-05-04 18:53 | 43.65787 | 7.20579 | 29 ft | 3 kts | 297° |
| 2026-05-04 18:54 | 43.65779 | 7.20604 | 26 ft | 3 kts | 285° |
| 2026-05-04 18:54 | 43.65775 | 7.20631 | 24 ft | 3 kts | 268° |
| 2026-05-04 18:54 | 43.65778 | 7.20656 | 24 ft | 3 kts | 237° |
| 2026-05-04 18:54 | 43.65783 | 7.20665 | 24 ft | 0 kts | 225° |
| 2026-05-04 18:57 | 43.65770 | 7.20647 | 28 ft | 8 kts | 225° |
| 2026-05-04 18:58 | 43.65719 | 7.20575 | 24 ft | 12 kts | 225° |
| 2026-05-04 18:58 | 43.65656 | 7.20488 | 26 ft | 13 kts | 224° |
| 2026-05-04 18:58 | 43.65584 | 7.20390 | 26 ft | 16 kts | 225° |
| 2026-05-04 18:58 | 43.65502 | 7.20279 | 25 ft | 17 kts | 224° |
| 2026-05-04 18:59 | 43.65406 | 7.20181 | 26 ft | 17 kts | 187° |
| 2026-05-04 18:59 | 43.65311 | 7.20247 | 26 ft | 16 kts | 136° |
| 2026-05-04 18:59 | 43.65227 | 7.20359 | 25 ft | 18 kts | 135° |
| 2026-05-04 18:59 | 43.65141 | 7.20475 | 25 ft | 15 kts | 141° |
| 2026-05-04 19:00 | 43.65043 | 7.20505 | 28 ft | 15 kts | 193° |
| 2026-05-04 19:00 | 43.64969 | 7.20431 | 26 ft | 13 kts | 225° |
| 2026-05-04 19:00 | 43.64924 | 7.20369 | 26 ft | 14 kts | 225° |
| 2026-05-04 19:00 | 43.64848 | 7.20281 | 29 ft | 13 kts | 202° |
| 2026-05-04 19:01 | 43.64779 | 7.20302 | 28 ft | 9 kts | 143° |
| 2026-05-04 19:01 | 43.64764 | 7.20358 | 26 ft | 5 kts | 82° |
| 2026-05-04 19:01 | 43.64778 | 7.20388 | 26 ft | 8 kts | 45° |
| 2026-05-04 19:01 | 43.64880 | 7.20533 | 27 ft | 57 kts | 46° |
| 2026-05-04 19:02 | 43.65359 | 7.21189 | 27 ft | 137 kts | 45° |
| 2026-05-04 19:02 | 43.66099 | 7.22189 | 580 ft | 155 kts | 47° |
| 2026-05-04 19:02 | 43.66577 | 7.23453 | 1451 ft | 149 kts | 89° |
| 2026-05-04 19:02 | 43.66255 | 7.24874 | 2210 ft | 175 kts | 120° |
| 2026-05-04 19:03 | 43.65403 | 7.26291 | 2820 ft | 204 kts | 132° |
| 2026-05-04 19:03 | 43.64374 | 7.27715 | 3768 ft | 212 kts | 133° |
| 2026-05-04 19:03 | 43.63333 | 7.29164 | 4621 ft | 214 kts | 132° |
| 2026-05-04 19:03 | 43.62188 | 7.30566 | 5487 ft | 231 kts | 144° |
| 2026-05-04 19:04 | 43.60648 | 7.31400 | 6326 ft | 252 kts | 170° |
| 2026-05-04 19:04 | 43.58845 | 7.31201 | 7309 ft | 264 kts | 187° |
| 2026-05-04 19:04 | 43.57110 | 7.30494 | 8809 ft | 259 kts | 203° |
| 2026-05-04 19:04 | 43.55671 | 7.28996 | 10092 ft | 266 kts | 227° |
| 2026-05-04 19:05 | 43.54575 | 7.26808 | 10755 ft | 292 kts | 236° |
| 2026-05-04 19:05 | 43.53550 | 7.24225 | 11199 ft | 320 kts | 240° |
| 2026-05-04 19:05 | 43.52514 | 7.21443 | 12084 ft | 330 kts | 241° |
| 2026-05-04 19:05 | 43.51464 | 7.18611 | 13162 ft | 334 kts | 241° |
| 2026-05-04 19:06 | 43.50401 | 7.15757 | 14247 ft | 337 kts | 242° |
| 2026-05-04 19:06 | 43.49315 | 7.12855 | 15130 ft | 344 kts | 241° |
| 2026-05-04 19:06 | 43.48203 | 7.09900 | 16008 ft | 350 kts | 241° |
| 2026-05-04 19:06 | 43.47074 | 7.06912 | 16980 ft | 354 kts | 241° |
| 2026-05-04 19:07 | 43.45932 | 7.03892 | 17952 ft | 358 kts | 241° |
| 2026-05-04 19:07 | 43.44774 | 7.00835 | 18751 ft | 363 kts | 241° |
| 2026-05-04 19:07 | 43.43593 | 6.97724 | 19496 ft | 369 kts | 240° |
| 2026-05-04 19:07 | 43.42399 | 6.94579 | 20259 ft | 373 kts | 240° |
| 2026-05-04 19:08 | 43.41190 | 6.91400 | 20992 ft | 377 kts | 240° |
| 2026-05-04 19:08 | 43.39966 | 6.88184 | 21728 ft | 382 kts | 240° |
| 2026-05-04 19:08 | 43.38725 | 6.84927 | 22462 ft | 386 kts | 240° |
| 2026-05-04 19:08 | 43.37473 | 6.81645 | 23237 ft | 389 kts | 240° |
| 2026-05-04 19:09 | 43.36209 | 6.78338 | 23892 ft | 393 kts | 240° |
| 2026-05-04 19:09 | 43.34935 | 6.75006 | 24511 ft | 395 kts | 240° |
| 2026-05-04 19:09 | 43.33667 | 6.71694 | 25145 ft | 396 kts | 240° |
| 2026-05-04 19:09 | 43.32383 | 6.68343 | 25755 ft | 398 kts | 240° |
| 2026-05-04 19:10 | 43.31084 | 6.64960 | 26352 ft | 399 kts | 240° |
| 2026-05-04 19:10 | 43.29788 | 6.61585 | 26940 ft | 401 kts | 240° |
| 2026-05-04 19:10 | 43.28481 | 6.58189 | 27498 ft | 403 kts | 240° |
| 2026-05-04 19:10 | 43.27171 | 6.54786 | 28039 ft | 405 kts | 240° |
| 2026-05-04 19:11 | 43.25852 | 6.51366 | 28547 ft | 407 kts | 240° |
| 2026-05-04 19:11 | 43.24523 | 6.47925 | 29071 ft | 408 kts | 241° |
| 2026-05-04 19:11 | 43.23194 | 6.44486 | 29635 ft | 409 kts | 240° |
| 2026-05-04 19:11 | 43.21849 | 6.41013 | 29953 ft | 415 kts | 240° |
| 2026-05-04 19:12 | 43.17797 | 6.30569 | 30022 ft | 415 kts | 240° |
| 2026-05-04 19:13 | 43.15080 | 6.23587 | 30025 ft | 415 kts | 240° |
| 2026-05-04 19:13 | 43.12362 | 6.16620 | 30019 ft | 415 kts | 240° |
| 2026-05-04 19:14 | 43.09640 | 6.09660 | 30018 ft | 415 kts | 240° |
| 2026-05-04 19:14 | 43.06908 | 6.02690 | 30007 ft | 416 kts | 240° |
| 2026-05-04 19:15 | 43.04165 | 5.95713 | 30017 ft | 416 kts | 240° |
| 2026-05-04 19:15 | 43.01421 | 5.88749 | 30007 ft | 415 kts | 240° |
| 2026-05-04 19:16 | 42.98679 | 5.81805 | 30003 ft | 415 kts | 240° |
| 2026-05-04 19:16 | 42.95933 | 5.74869 | 29994 ft | 415 kts | 240° |
| 2026-05-04 19:17 | 42.93193 | 5.67963 | 29993 ft | 416 kts | 239° |
| 2026-05-04 19:17 | 42.90426 | 5.61010 | 29983 ft | 418 kts | 239° |
| 2026-05-04 19:18 | 42.87643 | 5.54032 | 29972 ft | 417 kts | 239° |
| 2026-05-04 19:18 | 42.84870 | 5.47092 | 29970 ft | 416 kts | 239° |
| 2026-05-04 19:19 | 42.82096 | 5.40170 | 29970 ft | 416 kts | 239° |
| 2026-05-04 19:19 | 42.79335 | 5.33295 | 29975 ft | 416 kts | 239° |
| 2026-05-04 19:20 | 42.76544 | 5.26363 | 29968 ft | 419 kts | 239° |
| 2026-05-04 19:20 | 42.73733 | 5.19397 | 29965 ft | 419 kts | 239° |
| 2026-05-04 19:21 | 42.70918 | 5.12439 | 29966 ft | 419 kts | 239° |
| 2026-05-04 19:21 | 42.68103 | 5.05497 | 29966 ft | 419 kts | 239° |
| 2026-05-04 19:22 | 42.65287 | 4.98569 | 29953 ft | 419 kts | 239° |
| 2026-05-04 19:22 | 42.62465 | 4.91644 | 29957 ft | 419 kts | 239° |
| 2026-05-04 19:23 | 42.59635 | 4.84715 | 29942 ft | 419 kts | 239° |
| 2026-05-04 19:23 | 42.56796 | 4.77781 | 29949 ft | 423 kts | 239° |
| 2026-05-04 19:24 | 42.53949 | 4.70843 | 29937 ft | 420 kts | 239° |
| 2026-05-04 19:24 | 42.51126 | 4.63979 | 29930 ft | 419 kts | 239° |
| 2026-05-04 19:25 | 42.48283 | 4.57085 | 29975 ft | 418 kts | 238° |
| 2026-05-04 19:25 | 42.45440 | 4.50206 | 29609 ft | 418 kts | 239° |
| 2026-05-04 19:25 | 42.44018 | 4.46771 | 29334 ft | 420 kts | 239° |
| 2026-05-04 19:26 | 42.42585 | 4.43314 | 29061 ft | 419 kts | 239° |
| 2026-05-04 19:26 | 42.41152 | 4.39863 | 28775 ft | 418 kts | 239° |
| 2026-05-04 19:26 | 42.39729 | 4.36437 | 28497 ft | 416 kts | 239° |
| 2026-05-04 19:26 | 42.38314 | 4.33034 | 28231 ft | 414 kts | 239° |
| 2026-05-04 19:27 | 42.36902 | 4.29643 | 27965 ft | 413 kts | 239° |
| 2026-05-04 19:27 | 42.35491 | 4.26260 | 27687 ft | 411 kts | 239° |
| 2026-05-04 19:27 | 42.34089 | 4.22900 | 27423 ft | 410 kts | 239° |
| 2026-05-04 19:27 | 42.32691 | 4.19556 | 27154 ft | 408 kts | 239° |
| 2026-05-04 19:28 | 42.31302 | 4.16234 | 26931 ft | 405 kts | 238° |
| 2026-05-04 19:28 | 42.29935 | 4.12971 | 26675 ft | 402 kts | 238° |
| 2026-05-04 19:28 | 42.28560 | 4.09691 | 26417 ft | 400 kts | 238° |
| 2026-05-04 19:28 | 42.27170 | 4.06382 | 26164 ft | 399 kts | 238° |
| 2026-05-04 19:29 | 42.25820 | 4.03168 | 25918 ft | 398 kts | 238° |
| 2026-05-04 19:29 | 42.24457 | 3.99928 | 25672 ft | 396 kts | 238° |
| 2026-05-04 19:29 | 42.23098 | 3.96702 | 25428 ft | 395 kts | 238° |
| 2026-05-04 19:29 | 42.21742 | 3.93488 | 25183 ft | 394 kts | 238° |
| 2026-05-04 19:30 | 42.20389 | 3.90281 | 24941 ft | 393 kts | 238° |
| 2026-05-04 19:30 | 42.19035 | 3.87079 | 24702 ft | 391 kts | 238° |
| 2026-05-04 19:30 | 42.17690 | 3.83898 | 24466 ft | 390 kts | 238° |
| 2026-05-04 19:30 | 42.16349 | 3.80730 | 24245 ft | 389 kts | 238° |
| 2026-05-04 19:31 | 42.15010 | 3.77571 | 24032 ft | 387 kts | 238° |
| 2026-05-04 19:31 | 42.13678 | 3.74431 | 23806 ft | 384 kts | 238° |
| 2026-05-04 19:31 | 42.12366 | 3.71342 | 23319 ft | 375 kts | 238° |
| 2026-05-04 19:31 | 42.11102 | 3.68367 | 23159 ft | 356 kts | 238° |
| 2026-05-04 19:32 | 42.09905 | 3.65549 | 22932 ft | 341 kts | 238° |
| 2026-05-04 19:32 | 42.08760 | 3.62777 | 22435 ft | 336 kts | 241° |
| 2026-05-04 19:32 | 42.07776 | 3.59975 | 22076 ft | 329 kts | 243° |
| 2026-05-04 19:32 | 42.06836 | 3.57154 | 21661 ft | 330 kts | 243° |
| 2026-05-04 19:33 | 42.05901 | 3.54327 | 21230 ft | 330 kts | 243° |
| 2026-05-04 19:33 | 42.04972 | 3.51514 | 20810 ft | 328 kts | 243° |
| 2026-05-04 19:33 | 42.04045 | 3.48713 | 20380 ft | 327 kts | 243° |
| 2026-05-04 19:33 | 42.03122 | 3.45931 | 19963 ft | 325 kts | 243° |
| 2026-05-04 19:34 | 42.02201 | 3.43155 | 19542 ft | 324 kts | 243° |
| 2026-05-04 19:34 | 42.01284 | 3.40399 | 19118 ft | 322 kts | 243° |
| 2026-05-04 19:34 | 42.00370 | 3.37653 | 18691 ft | 321 kts | 243° |
| 2026-05-04 19:34 | 41.99458 | 3.34917 | 18271 ft | 320 kts | 243° |
| 2026-05-04 19:35 | 41.98551 | 3.32197 | 17814 ft | 318 kts | 243° |
| 2026-05-04 19:35 | 41.97658 | 3.29526 | 17390 ft | 316 kts | 243° |
| 2026-05-04 19:35 | 41.96749 | 3.26805 | 16966 ft | 314 kts | 243° |
| 2026-05-04 19:35 | 41.95858 | 3.24143 | 16557 ft | 312 kts | 243° |
| 2026-05-04 19:36 | 41.94941 | 3.21512 | 16133 ft | 309 kts | 239° |
| 2026-05-04 19:36 | 41.93827 | 3.19108 | 15737 ft | 306 kts | 234° |
| 2026-05-04 19:36 | 41.92607 | 3.16776 | 15341 ft | 303 kts | 233° |
| 2026-05-04 19:36 | 41.91364 | 3.14451 | 15019 ft | 318 kts | 233° |
| 2026-05-04 19:37 | 41.90030 | 3.11965 | 14744 ft | 336 kts | 233° |
| 2026-05-04 19:37 | 41.88671 | 3.09422 | 14519 ft | 333 kts | 233° |
| 2026-05-04 19:37 | 41.87311 | 3.06872 | 14280 ft | 338 kts | 233° |
| 2026-05-04 19:37 | 41.85941 | 3.04306 | 14056 ft | 338 kts | 233° |
| 2026-05-04 19:38 | 41.84577 | 3.01753 | 13823 ft | 337 kts | 233° |
| 2026-05-04 19:38 | 41.83214 | 2.99202 | 13573 ft | 335 kts | 233° |
| 2026-05-04 19:38 | 41.81855 | 2.96661 | 13305 ft | 334 kts | 233° |
| 2026-05-04 19:38 | 41.80500 | 2.94130 | 13043 ft | 334 kts | 233° |
| 2026-05-04 19:39 | 41.79151 | 2.91613 | 12777 ft | 332 kts | 233° |
| 2026-05-04 19:39 | 41.77806 | 2.89105 | 12522 ft | 330 kts | 233° |
| 2026-05-04 19:39 | 41.76466 | 2.86607 | 12262 ft | 329 kts | 233° |
| 2026-05-04 19:39 | 41.75134 | 2.84128 | 12008 ft | 328 kts | 233° |
| 2026-05-04 19:40 | 41.73772 | 2.81680 | 11768 ft | 327 kts | 228° |
| 2026-05-04 19:40 | 41.71998 | 2.79828 | 11301 ft | 325 kts | 207° |
| 2026-05-04 19:40 | 41.69826 | 2.79024 | 10821 ft | 328 kts | 188° |
| 2026-05-04 19:40 | 41.67540 | 2.78942 | 10340 ft | 328 kts | 182° |
| 2026-05-04 19:41 | 41.66025 | 2.78974 | 10021 ft | 328 kts | 182° |
| 2026-05-04 19:41 | 41.63038 | 2.79059 | 9356 ft | 317 kts | 182° |
| 2026-05-04 19:41 | 41.60873 | 2.79127 | 8847 ft | 305 kts | 182° |
| 2026-05-04 19:41 | 41.59454 | 2.79173 | 8508 ft | 299 kts | 182° |
| 2026-05-04 19:42 | 41.57404 | 2.79242 | 8014 ft | 291 kts | 182° |
| 2026-05-04 19:42 | 41.55409 | 2.79310 | 7510 ft | 284 kts | 182° |
| 2026-05-04 19:42 | 41.53449 | 2.79378 | 7062 ft | 277 kts | 182° |
| 2026-05-04 19:42 | 41.51551 | 2.79449 | 6643 ft | 269 kts | 182° |
| 2026-05-04 19:43 | 41.49700 | 2.79524 | 6242 ft | 265 kts | 182° |
| 2026-05-04 19:43 | 41.47884 | 2.79593 | 5920 ft | 264 kts | 182° |
| 2026-05-04 19:43 | 41.46082 | 2.79664 | 5619 ft | 252 kts | 182° |
| 2026-05-04 19:43 | 41.44398 | 2.79732 | 5309 ft | 233 kts | 182° |
| 2026-05-04 19:44 | 41.42834 | 2.79797 | 4972 ft | 218 kts | 182° |
| 2026-05-04 19:44 | 41.41376 | 2.79864 | 4669 ft | 202 kts | 182° |
| 2026-05-04 19:44 | 41.40000 | 2.79936 | 4296 ft | 193 kts | 182° |
| 2026-05-04 19:44 | 41.38690 | 2.80014 | 3962 ft | 184 kts | 182° |
| 2026-05-04 19:45 | 41.37424 | 2.80049 | 3882 ft | 180 kts | 191° |
| 2026-05-04 19:45 | 41.36346 | 2.79354 | 3970 ft | 172 kts | 229° |
| 2026-05-04 19:45 | 41.35908 | 2.77906 | 3989 ft | 174 kts | 268° |
| 2026-05-04 19:45 | 41.36296 | 2.76366 | 3988 ft | 182 kts | 298° |
| 2026-05-04 19:46 | 41.37090 | 2.75024 | 3987 ft | 186 kts | 306° |
| 2026-05-04 19:46 | 41.37952 | 2.73734 | 3989 ft | 187 kts | 307° |
| 2026-05-04 19:46 | 41.38823 | 2.72449 | 3988 ft | 187 kts | 307° |
| 2026-05-04 19:46 | 41.39698 | 2.71161 | 3988 ft | 187 kts | 307° |
| 2026-05-04 19:47 | 41.40561 | 2.69896 | 3982 ft | 187 kts | 307° |
| 2026-05-04 19:47 | 41.41438 | 2.68617 | 3982 ft | 187 kts | 307° |
| 2026-05-04 19:47 | 41.42313 | 2.67333 | 3979 ft | 186 kts | 303° |
| 2026-05-04 19:47 | 41.42810 | 2.65820 | 3987 ft | 176 kts | 275° |
| 2026-05-04 19:48 | 41.42878 | 2.64204 | 3985 ft | 175 kts | 268° |
| 2026-05-04 19:48 | 41.42864 | 2.62583 | 3848 ft | 174 kts | 267° |
| 2026-05-04 19:48 | 41.42846 | 2.60968 | 3596 ft | 175 kts | 267° |
| 2026-05-04 19:48 | 41.42829 | 2.59346 | 3372 ft | 175 kts | 267° |
| 2026-05-04 19:49 | 41.42811 | 2.57724 | 3119 ft | 175 kts | 267° |
| 2026-05-04 19:49 | 41.42786 | 2.56099 | 2952 ft | 175 kts | 267° |
| 2026-05-04 19:49 | 41.42762 | 2.54484 | 2733 ft | 174 kts | 266° |
| 2026-05-04 19:49 | 41.42743 | 2.52871 | 2482 ft | 174 kts | 267° |
| 2026-05-04 19:50 | 41.42724 | 2.51254 | 2322 ft | 175 kts | 267° |
| 2026-05-04 19:50 | 41.42701 | 2.49641 | 2292 ft | 174 kts | 267° |
| 2026-05-04 19:50 | 41.42677 | 2.48034 | 2293 ft | 173 kts | 267° |
| 2026-05-04 19:50 | 41.42652 | 2.46421 | 2295 ft | 174 kts | 267° |
| 2026-05-04 19:51 | 41.42447 | 2.44850 | 2301 ft | 173 kts | 245° |
| 2026-05-04 19:51 | 41.41938 | 2.43397 | 2300 ft | 173 kts | 245° |
| 2026-05-04 19:51 | 41.41430 | 2.41954 | 2300 ft | 172 kts | 244° |
| 2026-05-04 19:51 | 41.40912 | 2.40517 | 2300 ft | 172 kts | 244° |
| 2026-05-04 19:52 | 41.40393 | 2.39080 | 2304 ft | 173 kts | 245° |
| 2026-05-04 19:52 | 41.39878 | 2.37633 | 2304 ft | 173 kts | 245° |
| 2026-05-04 19:52 | 41.39375 | 2.36187 | 2302 ft | 172 kts | 245° |
| 2026-05-04 19:52 | 41.38882 | 2.34738 | 2303 ft | 171 kts | 246° |
| 2026-05-04 19:53 | 41.38393 | 2.33284 | 2310 ft | 172 kts | 246° |
| 2026-05-04 19:53 | 41.37904 | 2.31825 | 2310 ft | 172 kts | 246° |
| 2026-05-04 19:53 | 41.37414 | 2.30374 | 2309 ft | 172 kts | 246° |
| 2026-05-04 19:53 | 41.36921 | 2.28925 | 2317 ft | 172 kts | 246° |
| 2026-05-04 19:54 | 41.36416 | 2.27451 | 2325 ft | 176 kts | 246° |
| 2026-05-04 19:54 | 41.35906 | 2.25966 | 2318 ft | 177 kts | 246° |
| 2026-05-04 19:54 | 41.35401 | 2.24492 | 2315 ft | 178 kts | 246° |
| 2026-05-04 19:54 | 41.34889 | 2.22995 | 2161 ft | 177 kts | 246° |
| 2026-05-04 19:55 | 41.34379 | 2.21502 | 1912 ft | 177 kts | 246° |
| 2026-05-04 19:55 | 41.33887 | 2.20063 | 1679 ft | 162 kts | 247° |
| 2026-05-04 19:55 | 41.33453 | 2.18797 | 1484 ft | 140 kts | 246° |
| 2026-05-04 19:55 | 41.33071 | 2.17678 | 1280 ft | 126 kts | 246° |
| 2026-05-04 19:56 | 41.32721 | 2.16652 | 1126 ft | 119 kts | 244° |
| 2026-05-04 19:56 | 41.32380 | 2.15657 | 964 ft | 118 kts | 246° |
| 2026-05-04 19:56 | 41.32041 | 2.14667 | 794 ft | 118 kts | 247° |
| 2026-05-04 19:56 | 41.31702 | 2.13675 | 640 ft | 117 kts | 245° |
| 2026-05-04 19:57 | 41.31363 | 2.12688 | 472 ft | 117 kts | 245° |
| 2026-05-04 19:57 | 41.31026 | 2.11702 | 308 ft | 116 kts | 243° |
| 2026-05-04 19:57 | 41.30693 | 2.10722 | 158 ft | 116 kts | 245° |
| 2026-05-04 19:57 | 41.30364 | 2.09766 | 25 ft | 107 kts | 245° |
| 2026-05-04 19:58 | 41.30124 | 2.09074 | 22 ft | 56 kts | 247° |
| 2026-05-04 19:58 | 41.30027 | 2.08790 | 25 ft | 18 kts | 241° |
| 2026-05-04 19:58 | 41.29956 | 2.08665 | 27 ft | 16 kts | 226° |
| 2026-05-04 19:58 | 41.29868 | 2.08566 | 26 ft | 18 kts | 217° |
| 2026-05-04 19:59 | 41.29807 | 2.08505 | 22 ft | 0 kts | 214° |
| 2026-05-04 19:59 | 41.29798 | 2.08498 | 21 ft | 4 kts | 214° |
| 2026-05-04 19:59 | 41.29767 | 2.08469 | 20 ft | 7 kts | 214° |
| 2026-05-04 19:59 | 41.29726 | 2.08435 | 20 ft | 3 kts | 217° |
| 2026-05-04 20:00 | 41.29710 | 2.08404 | 20 ft | 7 kts | 250° |
| 2026-05-04 20:00 | 41.29687 | 2.08330 | 21 ft | 10 kts | 246° |
| 2026-05-04 20:00 | 41.29652 | 2.08247 | 21 ft | 8 kts | 216° |
| 2026-05-04 20:00 | 41.29613 | 2.08237 | 19 ft | 2 kts | 165° |
| 2026-05-04 20:01 | 41.29551 | 2.08266 | 19 ft | 13 kts | 158° |
| 2026-05-04 20:01 | 41.29465 | 2.08316 | 20 ft | 14 kts | 156° |
| 2026-05-04 20:01 | 41.29371 | 2.08372 | 22 ft | 15 kts | 156° |
| 2026-05-04 20:01 | 41.29271 | 2.08433 | 26 ft | 16 kts | 155° |
| 2026-05-04 20:02 | 41.29167 | 2.08429 | 23 ft | 16 kts | 199° |
| 2026-05-04 20:02 | 41.29063 | 2.08368 | 23 ft | 15 kts | 223° |
| 2026-05-04 20:02 | 41.29028 | 2.08295 | 22 ft | 8 kts | 246° |
| 2026-05-04 20:02 | 41.29003 | 2.08220 | 22 ft | 10 kts | 246° |
| 2026-05-04 20:03 | 41.28970 | 2.08124 | 24 ft | 13 kts | 245° |
| 2026-05-04 20:03 | 41.28930 | 2.08010 | 24 ft | 15 kts | 244° |
| 2026-05-04 20:03 | 41.28899 | 2.07904 | 23 ft | 1 kts | 281° |
| 2026-05-04 20:03 | 41.28906 | 2.07890 | 22 ft | 4 kts | 306° |
| 2026-05-04 20:04 | 41.28931 | 2.07865 | 22 ft | 5 kts | 333° |
| 2026-05-04 20:04 | 41.28960 | 2.07846 | 22 ft | 1 kts | 335° |
| 2026-05-04 20:04 | 41.28960 | 2.07845 | 22 ft | 0 kts | 335° |